Pagrindinis puslapis
METAR-TAF:

METAR-TAF

Oro uostai :

Turino oro uostas

Turinas, Italija

platuma: 45-13N, ilguma: 007-39E, Aukštis: 301 m

Dabartinis oras

Ataskaita buvo paskelbta 56 minutes, ne 17:50 UTC
Vėjas 3 kt iš Šiaurės
Temperatūra 18°C
Drėgmė 83%
Slėgis 1021 hPa
Matomumas 10 km arba daugiau
Su prošvaistėmis ne aukštis 3500 ft

METAR: LIMF 191750Z 35003KT 9999 BKN035 18/15 Q1021

Laikas: 20:46 (18:46 UTC)

Prognozė

Ataskaita buvo paskelbta 1 valandą ir 46 minutes, ne 17:00 UTC
Prognozė galioja nuo 19 metu 18 UTC su 20 metu 18 UTC
Vėjas 5 kt nuo kintamojo kryptimis
Matomumas: 7000 m
Išsisklaidę debesys ne aukštis 1500 ft
Išsisklaidę debesys ne aukštis 5000 ft

TAF: LIMF 191700Z 1918/2018 VRB05KT 7000 SCT015 SCT050

Orai ataskaitas ir orų prognozės (METAR, TAF).

turimą stotys yra geltonos ir raudonos taškus žemėlapyje.

Perkelti pele per norėdami pamatyti stoties vardą.

Tada spustelėkite, norėdami matyti oro stebėjimo ir prognozės.

Norėdami pakeisti žemėlapį: spustelėkite ant žalios mygtukų su juodo kryžiaus žemyn,; žalią mygtuką su brūkšneliu, jei norite nutolinti; arba žalių rodyklių gretimoms žemėlapius.


METAR-TAF: